Aérodrome :
LOGIN :

S'inscrire | Disclaimer

   EN    FR    IT 

 










Légende :    VFR   VFR Marginal   IFR   IFR Intensif   IFR Très Intensif
Visi : 
Plafond : 
>= 8 km
>= 3000ft
5 à 8 km
1000 à 3000 ft
1500m à 5 km
500 à 1000 ft
800 à 1500m
200 à 500 ft
< 800m
< 200 ft
Symboles :   Orages  Brouillard  Fortes neiges  Fortes précipitations  Vent > 20 kt
SIGMETs :   Divers  Orages  Givrage  Turbulence  Onde Orograph.  Cendres Volcan.







- Altitude de l'aérodrome : 1058 ft
- Code IATA : SCN


EDDR - Saarbrücken

DERNIER METAR :
  • 301220Z 11008KT 060V200 CAVOK 19/06 Q1025 NOSIG

METARs EXPIRÉS :
  • 301150Z 10007KT 050V180 CAVOK 18/07 Q1025 NOSIG
  • 301120Z 09008KT 060V140 9999 FEW045 BKN300 18/07 Q1026 NOSIG
  • 301050Z 12007KT 070V160 9999 FEW045 BKN300 18/07 Q1026 NOSIG
  • 301020Z 09007KT 030V140 9999 FEW040 BKN300 17/07 Q1026 NOSIG
  • 300950Z 10009KT 060V130 9999 FEW040 BKN300 17/07 Q1027 NOSIG

TAF TAF EDDR
Valide du 30 à 12h jusqu'au 31 à 12h UTC


301100Z 3012/3112 12005KT CAVOK
BECMG 3106/3109 20010KT
Pas de NOTAMs connus pour ce terrain.



MET'MAP, la Météo Aéronautique d'un coup d'oeil ! - Copyright ORBIFLY Décembre 2007 - Disclaimer

ORBIFLY MET'MAP TEAM :

Programmation & Développement : Alexandra Zaïnal
Conception & Développement : Baudouin d'Aumeries
Co-Programmation & Développement : Marc-Olivier Méhu
Soutien technique & logistique : Manuel Goepfert

Contact : metmap@orbifly.com




SOURCES & CREDITS :

   NOAA